Time;durP1;ratioP1;P1;durP2;ratioP2;P2;SDS_P1;SDS_P2;PMS_P1;PMS_P2;Temp;Humidity;BMP_temperature;BMP_pressure;BME280_temperature;BME280_humidity;BME280_pressure;Samples;Min_cycle;Max_cycle;Signal;HPM_P1;HPM_P2
2023/09/30 00:00:27;;;;;;;5.37;4.70;;;17.20;99.90;;;;;;4974669;28;20490;-59
2023/09/30 00:02:52;;;;;;;7.13;5.97;;;17.10;99.90;;;;;;4975634;28;20470;-63
2023/09/30 00:05:19;;;;;;;9.53;8.57;;;17.10;99.90;;;;;;4974148;28;20428;-63
2023/09/30 00:07:46;;;;;;;6.37;5.87;;;17.10;99.90;;;;;;4974684;28;20180;-62
2023/09/30 00:10:12;;;;;;;7.30;5.63;;;17.10;99.90;;;;;;4975113;28;20404;-62
2023/09/30 00:12:38;;;;;;;7.53;6.30;;;17.10;99.90;;;;;;4974739;28;20425;-62
2023/09/30 00:15:04;;;;;;;8.00;6.23;;;17.10;99.90;;;;;;4975297;28;20185;-62
2023/09/30 00:17:30;;;;;;;6.03;5.23;;;17.10;99.90;;;;;;4974409;28;20415;-62
2023/09/30 00:19:56;;;;;;;8.37;6.60;;;17.00;99.90;;;;;;4975504;28;20427;-62
2023/09/30 00:22:22;;;;;;;7.63;5.63;;;17.10;99.90;;;;;;4974710;28;20219;-62
2023/09/30 00:24:48;;;;;;;10.30;5.27;;;17.00;99.90;;;;;;4974487;28;20911;-62
2023/09/30 00:27:14;;;;;;;8.47;5.53;;;17.00;99.90;;;;;;4975281;28;20467;-62
2023/09/30 00:29:39;;;;;;;5.93;5.07;;;17.00;99.90;;;;;;4963492;28;20181;-62
2023/09/30 00:32:05;;;;;;;7.93;5.60;;;17.00;99.90;;;;;;4960092;28;20183;-62
2023/09/30 00:34:36;;;;;;;7.20;5.27;;;16.90;99.90;;;;;;4972882;28;20179;-62
2023/09/30 00:37:02;;;;;;;7.50;5.37;;;17.00;99.90;;;;;;4974392;28;20188;-63
2023/09/30 00:39:31;;;;;;;7.33;5.63;;;16.90;99.90;;;;;;4962946;28;20427;-60
2023/09/30 00:41:58;;;;;;;7.90;5.70;;;16.90;99.90;;;;;;4974516;28;20676;-62
2023/09/30 00:44:25;;;;;;;7.10;6.40;;;16.90;99.90;;;;;;4974228;28;20814;-62
2023/09/30 00:46:52;;;;;;;10.83;6.33;;;16.90;99.90;;;;;;4973324;28;20432;-62
2023/09/30 00:49:18;;;;;;;9.10;5.83;;;16.90;99.90;;;;;;4973021;28;20438;-62
2023/09/30 00:51:46;;;;;;;7.77;6.07;;;16.90;99.90;;;;;;4973878;28;20428;-62
2023/09/30 00:54:12;;;;;;;6.23;5.70;;;16.90;99.90;;;;;;4973945;28;20311;-62
2023/09/30 00:56:47;;;;;;;7.10;6.40;;;16.80;99.90;;;;;;4973693;28;20415;-62
2023/09/30 00:59:16;;;;;;;7.00;6.30;;;16.80;99.90;;;;;;4974490;28;20427;-62
2023/09/30 01:01:44;;;;;;;9.03;6.20;;;16.90;99.90;;;;;;4973861;28;20412;-62
2023/09/30 01:04:14;;;;;;;6.43;5.93;;;16.90;99.90;;;;;;4958042;28;20834;-62
2023/09/30 01:06:40;;;;;;;7.47;6.40;;;16.90;99.90;;;;;;4959988;28;20416;-62
2023/09/30 01:09:07;;;;;;;6.53;6.00;;;16.90;99.90;;;;;;4972918;28;20459;-62
2023/09/30 01:11:33;;;;;;;8.07;6.63;;;16.80;99.90;;;;;;4971781;28;20424;-62
2023/09/30 01:13:59;;;;;;;7.03;6.40;;;16.80;99.90;;;;;;4973386;28;20427;-61
2023/09/30 01:16:24;;;;;;;6.83;6.10;;;16.90;99.90;;;;;;4974228;28;20880;-62
2023/09/30 01:18:50;;;;;;;6.37;5.77;;;16.80;99.90;;;;;;4971828;28;20184;-62
2023/09/30 01:21:18;;;;;;;7.40;6.70;;;16.80;99.90;;;;;;4972855;28;20185;-62
2023/09/30 01:23:46;;;;;;;7.70;6.37;;;16.80;99.90;;;;;;4954096;29;20808;-63
2023/09/30 01:26:12;;;;;;;7.07;6.33;;;16.80;99.90;;;;;;4955958;28;20801;-62
2023/09/30 01:28:38;;;;;;;6.97;5.87;;;16.80;99.90;;;;;;4958659;28;20562;-62
2023/09/30 01:31:05;;;;;;;9.73;6.77;;;16.80;99.90;;;;;;4972178;28;20452;-61
2023/09/30 01:33:32;;;;;;;8.67;7.40;;;16.80;99.90;;;;;;4972221;28;20420;-59
2023/09/30 01:35:59;;;;;;;10.73;6.70;;;16.70;99.90;;;;;;4972279;28;20518;-63
2023/09/30 01:38:25;;;;;;;7.70;6.77;;;16.80;99.90;;;;;;4973288;28;20750;-63
2023/09/30 01:40:51;;;;;;;10.00;7.03;;;16.80;99.90;;;;;;4972217;28;20396;-62
2023/09/30 01:43:17;;;;;;;7.13;6.43;;;16.80;99.90;;;;;;4972644;28;20495;-62
2023/09/30 01:45:44;;;;;;;7.03;6.23;;;16.80;99.90;;;;;;4971802;28;20428;-62
2023/09/30 01:48:10;;;;;;;9.70;6.90;;;16.80;99.90;;;;;;4972511;28;20424;-62
2023/09/30 01:50:38;;;;;;;7.43;6.40;;;16.80;99.90;;;;;;4970277;28;20428;-62
2023/09/30 01:53:06;;;;;;;8.57;7.30;;;16.80;99.90;;;;;;4959002;28;20471;-63
2023/09/30 01:55:35;;;;;;;6.60;5.90;;;16.80;99.90;;;;;;4971332;28;20439;-59
2023/09/30 01:58:02;;;;;;;7.97;6.07;;;16.80;99.90;;;;;;4972115;28;20450;-63
2023/09/30 02:00:28;;;;;;;7.10;6.10;;;16.80;99.90;;;;;;4972705;28;20408;-62
2023/09/30 02:02:57;;;;;;;6.50;6.00;;;16.80;99.90;;;;;;4971264;28;21273;-63
2023/09/30 02:05:24;;;;;;;6.13;5.30;;;16.80;99.90;;;;;;4954785;28;20769;-63
2023/09/30 02:07:50;;;;;;;9.20;6.20;;;16.70;99.90;;;;;;4972411;28;20445;-62
2023/09/30 02:10:20;;;;;;;11.47;7.40;;;16.80;99.90;;;;;;4971723;28;20442;-63
2023/09/30 02:12:46;;;;;;;6.77;5.77;;;16.80;99.90;;;;;;4953742;28;20439;-62
2023/09/30 02:15:13;;;;;;;7.80;6.00;;;16.80;99.90;;;;;;4972513;28;20426;-62
2023/09/30 02:17:38;;;;;;;11.13;6.53;;;16.80;99.90;;;;;;4971246;28;20438;-62
2023/09/30 02:20:12;;;;;;;9.60;6.20;;;16.80;99.90;;;;;;4972240;28;20419;-62
2023/09/30 02:22:38;;;;;;;6.77;5.93;;;16.80;99.90;;;;;;4971727;28;20193;-61
2023/09/30 02:25:07;;;;;;;8.63;5.50;;;16.90;99.90;;;;;;4955676;28;20754;-62
2023/09/30 02:27:33;;;;;;;6.63;5.40;;;16.80;99.90;;;;;;4931322;28;1174660;-59
2023/09/30 02:29:59;;;;;;;12.60;5.37;;;16.80;99.90;;;;;;4972226;28;20192;-62
2023/09/30 02:32:25;;;;;;;7.10;6.10;;;16.80;99.90;;;;;;4972368;28;20907;-61
2023/09/30 02:34:51;;;;;;;10.83;6.07;;;16.80;99.90;;;;;;4972018;28;20426;-62
2023/09/30 02:37:18;;;;;;;7.00;6.00;;;16.70;99.90;;;;;;4972286;28;20187;-62
2023/09/30 02:39:44;;;;;;;7.50;6.80;;;16.70;99.90;;;;;;4972609;28;20231;-62
2023/09/30 02:42:10;;;;;;;7.53;5.90;;;16.70;99.90;;;;;;4976256;28;20533;-62
2023/09/30 02:44:36;;;;;;;6.97;6.27;;;16.70;99.90;;;;;;4976654;28;20459;-60
2023/09/30 02:47:02;;;;;;;8.53;7.17;;;16.70;99.90;;;;;;4976986;28;20452;-62
2023/09/30 02:49:28;;;;;;;8.73;6.87;;;16.70;99.90;;;;;;4977026;28;20256;-61
2023/09/30 02:51:53;;;;;;;11.80;7.67;;;16.70;99.90;;;;;;4975814;28;20267;-62
2023/09/30 02:54:19;;;;;;;9.73;7.03;;;16.50;99.90;;;;;;4976299;28;20200;-62
2023/09/30 02:56:46;;;;;;;8.83;7.90;;;16.20;99.90;;;;;;4975461;28;20583;-62
2023/09/30 02:59:14;;;;;;;6.80;6.20;;;16.10;99.90;;;;;;4976037;28;20431;-62
2023/09/30 03:01:41;;;;;;;7.40;6.77;;;16.00;99.90;;;;;;4975259;28;20528;-62
2023/09/30 03:04:06;;;;;;;9.17;6.80;;;16.10;99.90;;;;;;4975812;28;20840;-62
2023/09/30 03:06:36;;;;;;;6.83;6.13;;;16.10;99.90;;;;;;4975726;28;20494;-62
2023/09/30 03:09:04;;;;;;;7.33;6.37;;;16.20;99.90;;;;;;4943071;28;20589;-62
2023/09/30 03:11:31;;;;;;;8.60;6.03;;;16.20;99.90;;;;;;4976082;28;20461;-62
2023/09/30 03:13:57;;;;;;;6.67;6.07;;;16.20;99.90;;;;;;4974888;28;20483;-62
2023/09/30 03:16:24;;;;;;;10.10;6.40;;;16.30;99.90;;;;;;4975732;28;20427;-62
2023/09/30 03:18:50;;;;;;;7.10;6.23;;;16.30;99.90;;;;;;4975465;28;20427;-62
2023/09/30 03:21:16;;;;;;;6.90;6.00;;;16.30;99.90;;;;;;4973685;28;20915;-62
2023/09/30 03:23:43;;;;;;;11.90;6.80;;;16.30;99.90;;;;;;4974717;28;20598;-62
2023/09/30 03:26:10;;;;;;;8.60;6.00;;;16.30;99.90;;;;;;4975746;28;20423;-62
2023/09/30 03:28:37;;;;;;;8.63;5.40;;;16.40;99.90;;;;;;4975498;28;20474;-60
2023/09/30 03:31:04;;;;;;;9.33;6.90;;;16.30;99.90;;;;;;4975564;28;20440;-62
2023/09/30 03:33:34;;;;;;;7.47;6.10;;;16.30;99.90;;;;;;4974971;28;20419;-62
2023/09/30 03:36:00;;;;;;;6.93;6.23;;;16.30;99.90;;;;;;4976018;28;20408;-62
2023/09/30 03:38:26;;;;;;;7.60;6.47;;;16.30;99.90;;;;;;4957874;28;20442;-62
2023/09/30 03:40:54;;;;;;;12.33;7.40;;;16.30;99.90;;;;;;4974466;28;20200;-62
2023/09/30 03:43:21;;;;;;;9.63;6.67;;;16.30;99.90;;;;;;4974978;28;20595;-61
2023/09/30 03:45:47;;;;;;;7.03;6.30;;;16.30;99.90;;;;;;4973556;28;20927;-62
2023/09/30 03:48:13;;;;;;;8.20;5.80;;;16.40;99.90;;;;;;4974952;28;20518;-62
2023/09/30 03:50:38;;;;;;;7.03;6.43;;;16.40;99.90;;;;;;4974578;28;20512;-60
2023/09/30 03:53:07;;;;;;;11.00;6.60;;;16.40;99.90;;;;;;4958407;28;20424;-62
2023/09/30 03:55:33;;;;;;;12.27;8.60;;;16.40;99.90;;;;;;4957572;28;20184;-62
2023/09/30 03:57:59;;;;;;;8.93;6.80;;;16.40;99.90;;;;;;4974000;28;20432;-62
2023/09/30 04:00:25;;;;;;;8.40;7.17;;;16.40;99.90;;;;;;4975296;28;20439;-62
2023/09/30 04:02:57;;;;;;;8.43;7.10;;;16.40;99.90;;;;;;4957003;28;20542;-62
2023/09/30 04:05:29;;;;;;;7.03;6.43;;;16.40;99.90;;;;;;4973652;28;20482;-62
2023/09/30 04:07:58;;;;;;;6.27;5.77;;;16.40;99.90;;;;;;4975109;28;20479;-62
2023/09/30 04:10:23;;;;;;;6.97;6.23;;;16.40;99.90;;;;;;4975407;28;20434;-62
2023/09/30 04:12:49;;;;;;;7.60;6.10;;;16.40;99.90;;;;;;4974451;28;20515;-62
2023/09/30 04:15:15;;;;;;;7.40;6.43;;;16.40;99.90;;;;;;4974271;28;20219;-62
2023/09/30 04:17:41;;;;;;;8.97;6.53;;;16.40;99.90;;;;;;4975124;28;20416;-59
2023/09/30 04:20:10;;;;;;;8.50;6.77;;;16.30;99.90;;;;;;4974429;28;20256;-62
2023/09/30 04:22:37;;;;;;;8.60;6.20;;;16.30;99.90;;;;;;4965497;28;20217;-62
2023/09/30 04:25:08;;;;;;;6.57;5.97;;;16.30;99.90;;;;;;4955988;28;21240;-62
2023/09/30 04:27:35;;;;;;;6.67;6.07;;;16.30;99.90;;;;;;4975001;28;20474;-62
2023/09/30 04:30:08;;;;;;;7.57;6.57;;;16.20;99.90;;;;;;4972814;28;20502;-62
2023/09/30 04:32:38;;;;;;;6.47;5.97;;;16.20;99.90;;;;;;4974774;28;20444;-62
2023/09/30 04:35:10;;;;;;;11.10;6.17;;;16.20;99.90;;;;;;4974692;28;20498;-62
2023/09/30 04:37:37;;;;;;;7.10;6.10;;;16.10;99.90;;;;;;4957705;28;20805;-62
2023/09/30 04:40:15;;;;;;;6.80;6.07;;;16.10;99.90;;;;;;4973066;28;21123;-62
2023/09/30 04:42:46;;;;;;;8.53;5.90;;;16.00;99.90;;;;;;4974480;28;20456;-59
2023/09/30 04:45:24;;;;;;;7.40;5.67;;;16.00;99.90;;;;;;4975023;28;20439;-62
2023/09/30 04:47:50;;;;;;;6.23;5.60;;;16.00;99.90;;;;;;4957378;28;20423;-62
2023/09/30 04:50:16;;;;;;;7.53;6.10;;;16.00;99.90;;;;;;4973160;28;20466;-62
2023/09/30 04:52:42;;;;;;;6.10;5.50;;;15.90;99.90;;;;;;4973070;28;20439;-59
2023/09/30 04:55:08;;;;;;;5.60;5.10;;;15.90;99.90;;;;;;4974371;28;20416;-62
2023/09/30 04:57:34;;;;;;;6.57;5.30;;;15.90;99.90;;;;;;4973867;28;20452;-61
2023/09/30 05:00:00;;;;;;;7.87;5.60;;;15.80;99.90;;;;;;4961814;28;20439;-62
2023/09/30 05:02:27;;;;;;;8.20;6.37;;;15.80;99.90;;;;;;4939670;28;20546;-62
2023/09/30 05:04:53;;;;;;;7.70;7.00;;;15.80;99.90;;;;;;4972707;28;20795;-62
2023/09/30 05:07:21;;;;;;;8.60;6.87;;;15.80;99.90;;;;;;4973676;28;20509;-62
2023/09/30 05:09:48;;;;;;;10.30;6.53;;;15.80;99.90;;;;;;4973421;28;20946;-62
2023/09/30 05:12:14;;;;;;;8.00;6.47;;;15.80;99.90;;;;;;4973677;28;20435;-62
2023/09/30 05:14:40;;;;;;;8.53;6.20;;;15.80;99.90;;;;;;4956289;28;20431;-62
2023/09/30 05:17:08;;;;;;;6.80;5.70;;;15.80;99.90;;;;;;4973693;28;20787;-62
2023/09/30 05:19:33;;;;;;;6.80;5.37;;;15.70;99.90;;;;;;4973136;28;20604;-62
2023/09/30 05:22:00;;;;;;;6.47;5.40;;;15.70;99.90;;;;;;4955882;28;20511;-62
2023/09/30 05:24:27;;;;;;;7.30;5.23;;;15.70;99.90;;;;;;4973997;28;20566;-62
2023/09/30 05:26:53;;;;;;;6.40;5.80;;;15.70;99.90;;;;;;4973039;28;20874;-62
2023/09/30 05:29:20;;;;;;;5.90;5.30;;;15.70;99.90;;;;;;4955901;28;20442;-62
2023/09/30 05:31:46;;;;;;;6.57;5.97;;;15.60;99.90;;;;;;4972429;28;20206;-59
2023/09/30 05:34:11;;;;;;;6.77;6.10;;;15.70;99.90;;;;;;4972544;28;20431;-62
2023/09/30 05:36:38;;;;;;;6.27;5.67;;;15.60;99.90;;;;;;4952826;29;20432;-62
2023/09/30 05:39:04;;;;;;;6.73;5.97;;;15.60;99.90;;;;;;4966598;28;20841;-62
2023/09/30 05:41:33;;;;;;;6.07;5.47;;;15.60;99.90;;;;;;4973762;28;20403;-62
2023/09/30 05:43:59;;;;;;;5.60;5.00;;;15.50;99.90;;;;;;4969491;28;20467;-62
2023/09/30 05:46:27;;;;;;;7.17;5.90;;;15.50;99.90;;;;;;4973264;28;20471;-62
2023/09/30 05:48:53;;;;;;;6.57;5.33;;;15.50;99.90;;;;;;4955051;28;20273;-62
2023/09/30 05:51:18;;;;;;;9.73;6.60;;;15.50;99.90;;;;;;4961348;28;20428;-62
2023/09/30 05:53:47;;;;;;;7.70;6.03;;;15.60;99.90;;;;;;4963677;28;22445;-60
2023/09/30 05:56:15;;;;;;;9.70;6.80;;;15.60;99.90;;;;;;4973118;28;20176;-62
2023/09/30 05:58:41;;;;;;;6.87;6.17;;;15.60;99.90;;;;;;4972534;28;20434;-62
2023/09/30 06:01:10;;;;;;;6.93;6.00;;;15.70;99.90;;;;;;4970968;28;21070;-62
2023/09/30 06:03:40;;;;;;;6.43;5.83;;;15.70;99.90;;;;;;4973285;28;20944;-62
2023/09/30 06:06:12;;;;;;;7.00;6.00;;;15.70;99.90;;;;;;4971939;28;20938;-62
2023/09/30 06:08:38;;;;;;;7.80;6.40;;;15.70;99.90;;;;;;4972952;28;20436;-62
2023/09/30 06:11:04;;;;;;;6.00;5.50;;;15.70;99.90;;;;;;4954232;28;20517;-62
2023/09/30 06:13:31;;;;;;;8.67;7.17;;;15.70;99.90;;;;;;4973479;28;20904;-62
2023/09/30 06:15:58;;;;;;;8.00;6.27;;;15.70;99.90;;;;;;4971806;28;20216;-62
2023/09/30 06:18:23;;;;;;;8.33;7.53;;;15.70;99.90;;;;;;4973696;28;20411;-62
2023/09/30 06:20:50;;;;;;;8.97;7.23;;;15.70;99.90;;;;;;4963281;28;20440;-59
2023/09/30 06:23:16;;;;;;;6.93;6.33;;;15.70;99.90;;;;;;4953719;29;20230;-62
2023/09/30 06:25:42;;;;;;;7.87;5.47;;;15.70;99.90;;;;;;4971752;28;20414;-62
2023/09/30 06:28:08;;;;;;;6.50;5.90;;;15.80;99.90;;;;;;4971783;28;21165;-62
2023/09/30 06:30:34;;;;;;;6.63;5.87;;;15.80;99.90;;;;;;4972169;28;20434;-62
2023/09/30 06:33:01;;;;;;;7.30;6.20;;;15.80;99.90;;;;;;4971691;28;20450;-62
2023/09/30 06:35:30;;;;;;;9.40;6.27;;;15.90;99.90;;;;;;4955507;28;20888;-62
2023/09/30 06:37:55;;;;;;;8.50;6.53;;;15.90;99.90;;;;;;4971251;28;20435;-62
2023/09/30 06:40:22;;;;;;;6.43;5.70;;;15.90;99.90;;;;;;4972070;28;20919;-62
2023/09/30 06:42:48;;;;;;;6.80;5.93;;;15.90;99.90;;;;;;4972064;28;20215;-60
2023/09/30 06:45:15;;;;;;;11.17;5.70;;;15.90;99.90;;;;;;4972335;28;20423;-62
2023/09/30 06:47:41;;;;;;;6.00;5.40;;;16.00;99.90;;;;;;4972337;28;20618;-62
2023/09/30 06:50:12;;;;;;;9.27;5.70;;;16.00;99.90;;;;;;4971480;28;21360;-63
2023/09/30 06:52:42;;;;;;;7.77;6.03;;;16.00;99.90;;;;;;4954017;29;20268;-63
2023/09/30 06:55:08;;;;;;;6.33;5.63;;;16.00;99.90;;;;;;4969914;28;20657;-63
2023/09/30 06:57:36;;;;;;;8.77;6.77;;;16.10;99.90;;;;;;4972346;28;20474;-62
2023/09/30 07:00:11;;;;;;;7.50;5.60;;;16.10;99.90;;;;;;4972290;28;20465;-62
2023/09/30 07:02:38;;;;;;;6.37;5.77;;;16.10;99.90;;;;;;4972431;28;20474;-61
2023/09/30 07:05:12;;;;;;;10.30;7.20;;;15.80;99.90;;;;;;4971817;28;20427;-60
2023/09/30 07:07:39;;;;;;;7.60;6.43;;;15.60;99.90;;;;;;4971852;28;20489;-60
2023/09/30 07:10:08;;;;;;;9.97;6.57;;;15.60;99.90;;;;;;4970791;28;20429;-60
2023/09/30 07:12:35;;;;;;;8.70;6.83;;;15.70;99.90;;;;;;4954911;28;20807;-60
2023/09/30 07:15:08;;;;;;;8.07;6.80;;;15.60;99.90;;;;;;4971480;28;20551;-61
2023/09/30 07:17:34;;;;;;;5.77;5.20;;;15.70;99.90;;;;;;4972565;28;20906;-60
2023/09/30 07:20:01;;;;;;;6.87;5.93;;;15.90;99.90;;;;;;4972382;28;20812;-60
2023/09/30 07:22:26;;;;;;;9.53;6.90;;;16.10;99.90;;;;;;4953045;28;20816;-61
2023/09/30 07:24:52;;;;;;;8.90;6.63;;;16.20;99.90;;;;;;4965859;28;20445;-59
2023/09/30 07:27:18;;;;;;;12.70;7.10;;;16.40;99.90;;;;;;4970240;28;20581;-60
2023/09/30 07:29:44;;;;;;;10.07;7.83;;;16.50;99.90;;;;;;4969902;28;20561;-60
2023/09/30 07:32:10;;;;;;;9.50;7.10;;;16.60;99.90;;;;;;4975031;28;20234;-60
2023/09/30 07:34:35;;;;;;;8.87;7.10;;;16.70;99.90;;;;;;4976614;28;20184;-61
2023/09/30 07:37:01;;;;;;;10.27;7.07;;;16.80;99.90;;;;;;4975999;28;20213;-60
2023/09/30 07:39:27;;;;;;;10.23;7.23;;;17.00;99.90;;;;;;4975619;28;20188;-60
2023/09/30 07:41:52;;;;;;;11.17;7.37;;;17.10;99.90;;;;;;4975628;28;20185;-64
2023/09/30 07:44:18;;;;;;;8.80;7.40;;;17.00;99.90;;;;;;4957050;28;20247;-72
2023/09/30 07:46:44;;;;;;;10.87;9.73;;;17.20;99.90;;;;;;4974953;28;20220;-67
2023/09/30 07:49:10;;;;;;;13.17;9.73;;;17.40;99.90;;;;;;4974690;28;20183;-67
2023/09/30 07:51:38;;;;;;;11.37;7.53;;;17.70;99.90;;;;;;4975738;28;20235;-68
2023/09/30 07:54:04;;;;;;;8.60;7.70;;;17.80;99.90;;;;;;4969631;28;20431;-69
2023/09/30 07:56:30;;;;;;;13.20;8.03;;;17.90;99.90;;;;;;4974377;28;20438;-69
2023/09/30 07:58:56;;;;;;;7.43;6.60;;;18.10;99.90;;;;;;4958230;28;20519;-69
2023/09/30 08:01:22;;;;;;;12.40;10.43;;;18.30;99.90;;;;;;4974388;28;20615;-69
2023/09/30 08:03:48;;;;;;;10.50;7.60;;;18.20;99.90;;;;;;4954913;28;20696;-69
2023/09/30 08:06:13;;;;;;;10.20;7.53;;;18.50;99.90;;;;;;4975185;28;20259;-68
2023/09/30 08:08:39;;;;;;;13.60;8.17;;;18.60;99.90;;;;;;4975418;28;20444;-68
2023/09/30 08:11:06;;;;;;;12.60;7.90;;;18.60;99.90;;;;;;4974045;28;20184;-68
2023/09/30 08:13:32;;;;;;;11.37;8.00;;;18.70;99.90;;;;;;4974602;28;20923;-68
2023/09/30 08:16:01;;;;;;;7.30;6.47;;;18.90;99.90;;;;;;4974650;28;20431;-68
2023/09/30 08:18:26;;;;;;;7.83;6.10;;;19.10;99.90;;;;;;4957763;28;20439;-68
2023/09/30 08:20:52;;;;;;;7.83;5.80;;;19.20;99.90;;;;;;4974383;28;20423;-63
2023/09/30 08:23:18;;;;;;;11.90;6.77;;;19.40;99.90;;;;;;4966892;28;20197;-68
2023/09/30 08:25:44;;;;;;;7.77;6.43;;;19.50;99.90;;;;;;4966136;28;20428;-68
2023/09/30 08:28:10;;;;;;;9.20;6.50;;;19.60;99.90;;;;;;4969835;28;20224;-68
2023/09/30 08:30:37;;;;;;;203.77;114.60;;;19.70;99.90;;;;;;4975389;28;20482;-68
2023/09/30 08:33:07;;;;;;;70.37;51.13;;;19.80;99.90;;;;;;4973829;28;20524;-68
2023/09/30 08:35:37;;;;;;;20.13;13.83;;;19.90;99.90;;;;;;4974530;28;20462;-68
2023/09/30 08:38:03;;;;;;;7.27;6.27;;;20.10;99.90;;;;;;4972638;28;20923;-69
2023/09/30 08:40:29;;;;;;;17.97;13.20;;;19.90;99.90;;;;;;4973330;28;20452;-67
2023/09/30 08:42:55;;;;;;;17.90;11.67;;;19.90;99.90;;;;;;4973457;28;20640;-67
2023/09/30 08:45:21;;;;;;;10.43;6.73;;;20.00;99.90;;;;;;4974889;28;20182;-67
2023/09/30 08:47:47;;;;;;;7.07;6.47;;;20.10;99.90;;;;;;4956839;28;20188;-67
2023/09/30 08:50:13;;;;;;;8.90;6.23;;;20.20;99.90;;;;;;4973208;28;20923;-67
2023/09/30 08:52:44;;;;;;;13.37;8.90;;;20.30;99.90;;;;;;4974142;28;20644;-68
2023/09/30 08:55:11;;;;;;;9.60;8.60;;;20.40;99.90;;;;;;4974029;28;20442;-67
2023/09/30 08:57:39;;;;;;;9.13;6.70;;;20.40;99.90;;;;;;4954709;28;20511;-68
2023/09/30 09:00:09;;;;;;;10.13;6.50;;;20.50;99.90;;;;;;4973482;28;20446;-68
2023/09/30 09:02:37;;;;;;;12.50;7.57;;;20.60;99.90;;;;;;4974189;28;20557;-68
2023/09/30 09:05:03;;;;;;;10.67;9.00;;;20.70;99.90;;;;;;4972673;28;21012;-68
2023/09/30 09:07:30;;;;;;;138.90;93.40;;;20.80;99.90;;;;;;4973465;28;20526;-69
2023/09/30 09:10:05;;;;;;;16.57;12.97;;;20.80;99.90;;;;;;4967857;28;20176;-63
2023/09/30 09:12:33;;;;;;;11.00;8.50;;;20.90;99.90;;;;;;4967996;28;20432;-68
2023/09/30 09:14:59;;;;;;;11.97;6.93;;;21.00;99.90;;;;;;4966106;28;20438;-68
2023/09/30 09:17:43;;;;;;;12.20;8.27;;;21.10;99.90;;;;;;4964531;28;20412;-65
2023/09/30 09:20:10;;;;;;;11.40;8.57;;;21.10;99.90;;;;;;4938300;28;20172;-68
2023/09/30 09:22:43;;;;;;;8.13;6.47;;;21.20;99.90;;;;;;4970977;28;20470;-67
2023/09/30 09:25:10;;;;;;;9.80;7.20;;;21.30;99.90;;;;;;4956007;28;20515;-68
2023/09/30 09:27:37;;;;;;;5.77;5.10;;;21.40;99.90;;;;;;4973583;28;20467;-67
2023/09/30 09:30:23;;;;;;;7.37;5.40;;;21.50;99.90;;;;;;4955709;28;20444;-68
2023/09/30 09:32:53;;;;;;;6.93;6.23;;;21.60;99.90;;;;;;4972284;28;20440;-68
2023/09/30 09:35:20;;;;;;;7.07;4.97;;;21.40;99.90;;;;;;4972938;28;20443;-68
2023/09/30 09:37:57;;;;;;;6.43;5.80;;;21.50;99.90;;;;;;4974229;28;20900;-68
2023/09/30 09:40:24;;;;;;;8.10;6.20;;;21.60;99.90;;;;;;4973507;28;20424;-68
2023/09/30 09:42:53;;;;;;;7.70;5.43;;;21.60;99.90;;;;;;4973343;28;20498;-68
2023/09/30 09:45:22;;;;;;;6.97;4.80;;;21.60;99.90;;;;;;4972497;28;20428;-68
2023/09/30 09:47:49;;;;;;;5.40;4.53;;;21.60;99.90;;;;;;4973625;28;20432;-68
2023/09/30 09:50:15;;;;;;;8.30;5.10;;;21.60;99.90;;;;;;4972107;28;20440;-68
2023/09/30 09:52:43;;;;;;;40.20;32.43;;;21.60;99.90;;;;;;4955951;28;20514;-68
2023/09/30 09:55:10;;;;;;;35.10;28.00;;;21.60;99.90;;;;;;4973587;28;20499;-68
2023/09/30 09:57:37;;;;;;;15.37;13.00;;;21.60;99.90;;;;;;4972433;28;20432;-68
2023/09/30 10:00:08;;;;;;;6.07;5.57;;;21.50;99.90;;;;;;4967428;28;20486;-68
2023/09/30 10:02:36;;;;;;;6.33;5.73;;;21.40;99.60;;;;;;4964739;28;20444;-68
2023/09/30 10:05:03;;;;;;;7.37;6.33;;;21.40;99.90;;;;;;4954342;28;20805;-67
2023/09/30 10:07:34;;;;;;;6.43;5.13;;;21.40;99.90;;;;;;4969395;28;20427;-67
2023/09/30 10:10:02;;;;;;;9.40;5.60;;;21.60;99.90;;;;;;4954883;28;20896;-67
2023/09/30 10:12:39;;;;;;;10.17;5.30;;;21.80;99.90;;;;;;4971250;28;20459;-68
2023/09/30 10:15:35;;;;;;;6.97;6.27;;;22.00;99.90;;;;;;4968375;28;20431;-68
2023/09/30 10:18:11;;;;;;;7.47;5.30;;;22.10;99.20;;;;;;4952718;28;20472;-66
2023/09/30 10:20:44;;;;;;;5.27;4.53;;;22.10;95.90;;;;;;4956009;28;20403;-68
2023/09/30 10:23:32;;;;;;;7.77;4.43;;;22.10;97.00;;;;;;4963002;28;20453;-68
2023/09/30 10:26:07;;;;;;;5.90;4.60;;;22.20;96.20;;;;;;4967736;28;20523;-68
2023/09/30 10:28:41;;;;;;;5.17;4.40;;;22.20;95.80;;;;;;4960673;28;20464;-68
2023/09/30 10:31:21;;;;;;;5.33;4.00;;;22.20;94.20;;;;;;4954671;28;20799;-67
2023/09/30 10:34:07;;;;;;;9.63;5.00;;;22.20;95.00;;;;;;4954881;28;20424;-68
2023/09/30 10:36:35;;;;;;;5.50;4.20;;;22.40;97.00;;;;;;4954634;28;20785;-69
2023/09/30 10:39:02;;;;;;;4.53;4.00;;;22.60;95.70;;;;;;4963864;28;20418;-64
2023/09/30 10:41:46;;;;;;;5.03;4.10;;;22.70;94.50;;;;;;4966275;28;20420;-68
2023/09/30 10:44:27;;;;;;;6.60;4.13;;;22.70;91.50;;;;;;4962533;28;20459;-68
2023/09/30 10:46:54;;;;;;;5.30;4.80;;;22.80;93.60;;;;;;4966092;28;20428;-66
2023/09/30 10:49:23;;;;;;;6.10;4.57;;;23.10;93.30;;;;;;4965917;28;20415;-68
2023/09/30 10:51:51;;;;;;;4.80;4.30;;;23.40;94.70;;;;;;4966497;28;20424;-67
2023/09/30 10:54:25;;;;;;;6.03;4.97;;;23.70;94.20;;;;;;4963425;28;20950;-68
2023/09/30 10:56:52;;;;;;;5.10;4.67;;;23.90;93.40;;;;;;4961942;28;20483;-68
2023/09/30 10:59:22;;;;;;;6.20;4.87;;;24.00;94.00;;;;;;4965802;28;20456;-67
2023/09/30 11:01:49;;;;;;;7.33;5.10;;;24.20;94.30;;;;;;4969817;28;20798;-69
2023/09/30 11:04:15;;;;;;;4.97;4.57;;;24.30;95.40;;;;;;4971316;28;20554;-70
2023/09/30 11:06:42;;;;;;;4.30;4.00;;;24.50;93.90;;;;;;4958550;28;20767;-70
2023/09/30 11:09:14;;;;;;;5.20;4.70;;;24.50;93.00;;;;;;4967428;28;20429;-68
2023/09/30 11:11:48;;;;;;;88.20;62.87;;;24.50;91.80;;;;;;4968323;28;20411;-64
2023/09/30 11:14:30;;;;;;;27.73;23.07;;;24.60;90.90;;;;;;4970812;28;20425;-69
2023/09/30 11:17:01;;;;;;;5.47;4.97;;;24.60;90.80;;;;;;4971313;28;20512;-68
2023/09/30 11:19:47;;;;;;;6.13;5.07;;;24.50;86.80;;;;;;4967398;28;20427;-68
2023/09/30 11:22:14;;;;;;;7.33;6.00;;;24.20;89.50;;;;;;4971395;28;20455;-68
2023/09/30 11:24:40;;;;;;;5.10;4.60;;;24.00;87.00;;;;;;4974166;28;20478;-69
2023/09/30 11:27:05;;;;;;;4.87;4.47;;;23.70;87.60;;;;;;4966816;28;20491;-68
2023/09/30 11:29:32;;;;;;;4.90;4.50;;;23.50;90.40;;;;;;4968250;28;20208;-69
2023/09/30 11:31:58;;;;;;;6.23;4.50;;;23.40;90.50;;;;;;4972405;28;20181;-70
2023/09/30 11:34:37;;;;;;;5.30;4.53;;;23.50;91.70;;;;;;4973133;28;20759;-69
2023/09/30 11:37:05;;;;;;;5.03;4.53;;;23.60;91.20;;;;;;4972812;28;20195;-69
2023/09/30 11:39:32;;;;;;;5.20;4.53;;;23.80;90.80;;;;;;4965903;28;20460;-69
2023/09/30 11:42:01;;;;;;;5.57;4.43;;;23.90;89.70;;;;;;4957849;28;20460;-69
2023/09/30 11:44:28;;;;;;;4.53;4.13;;;24.10;87.10;;;;;;4966946;28;20430;-69
2023/09/30 11:46:55;;;;;;;5.10;4.70;;;24.20;83.90;;;;;;4967528;28;20569;-68
2023/09/30 11:49:36;;;;;;;4.77;4.27;;;24.10;83.90;;;;;;4970590;28;20428;-69
2023/09/30 11:52:04;;;;;;;6.57;5.33;;;24.20;87.40;;;;;;4958326;28;20498;-71
2023/09/30 11:54:43;;;;;;;6.50;5.40;;;24.30;88.40;;;;;;4967662;28;20503;-64
2023/09/30 11:57:11;;;;;;;5.10;4.70;;;24.30;87.10;;;;;;4969477;28;20424;-67
2023/09/30 11:59:37;;;;;;;5.47;5.03;;;24.30;85.80;;;;;;4969587;28;20515;-66
2023/09/30 12:02:05;;;;;;;5.97;5.07;;;24.20;81.90;;;;;;4970642;28;20428;-66
2023/09/30 12:04:31;;;;;;;19.27;16.67;;;24.00;87.30;;;;;;4945359;28;20421;-65
2023/09/30 12:06:57;;;;;;;147.67;121.07;;;24.00;84.60;;;;;;4965170;28;21024;-69
2023/09/30 12:09:26;;;;;;;12.10;10.90;;;24.00;83.40;;;;;;4963620;28;20532;-70
2023/09/30 12:11:53;;;;;;;5.93;5.43;;;23.80;84.80;;;;;;4970278;28;20420;-71
2023/09/30 12:14:20;;;;;;;6.20;5.70;;;23.60;84.40;;;;;;4952401;28;20838;-72
2023/09/30 12:16:47;;;;;;;6.23;5.73;;;23.50;82.80;;;;;;4969610;28;20502;-71
2023/09/30 12:19:17;;;;;;;6.23;5.10;;;23.50;83.50;;;;;;4969056;28;20423;-72
2023/09/30 12:21:46;;;;;;;12.97;11.57;;;23.40;86.60;;;;;;4964627;28;20874;-71
2023/09/30 12:24:16;;;;;;;8.17;5.97;;;23.40;88.00;;;;;;4968010;28;20502;-70
2023/09/30 12:26:48;;;;;;;7.13;6.47;;;23.40;87.70;;;;;;4964833;28;20403;-71
2023/09/30 12:29:18;;;;;;;6.23;5.63;;;23.30;87.10;;;;;;4968402;28;20912;-73
2023/09/30 12:31:49;;;;;;;6.43;5.33;;;23.30;89.20;;;;;;4966408;28;20441;-70
2023/09/30 12:34:15;;;;;;;7.50;6.83;;;23.20;88.60;;;;;;4965623;28;20884;-70
2023/09/30 12:36:41;;;;;;;9.33;8.43;;;23.10;85.90;;;;;;4958020;28;20804;-72
2023/09/30 12:39:11;;;;;;;7.20;6.50;;;23.10;87.80;;;;;;4970078;28;20955;-73
2023/09/30 12:41:41;;;;;;;7.17;6.43;;;23.00;88.30;;;;;;4967232;28;20511;-72
2023/09/30 12:44:09;;;;;;;6.07;5.57;;;23.00;90.30;;;;;;4966066;28;20459;-70
2023/09/30 12:46:36;;;;;;;7.73;7.03;;;22.90;86.80;;;;;;4953474;29;20811;-71